This is the latest recevied weather packets stored in our database for station/object 9M4RBN-3. If no packets are shown the sender has not sent any weather packets the latest 10 day(s).
| Time | Temp. | Humidity | Pressure | Rain* | Wind** | Luminosity | Snow |
|---|---|---|---|---|---|---|---|
| 1777499487 | 24.44° C | 47% | 1014.6 hPa | - | - | - | - |
| 1777498587 | 25° C | 48% | 1014.4 hPa | - | - | - | - |
| 1777497687 | 25° C | 48% | 1014.5 hPa | - | - | - | - |
| 1777496787 | 25.56° C | 47% | 1014.4 hPa | - | - | - | - |
| 1777495887 | 26.11° C | 49% | 1014.6 hPa | - | - | - | - |
| 1777494987 | 26.67° C | 52% | 1014.7 hPa | - | - | - | - |
| 1777494087 | 27.22° C | 63% | 1014.5 hPa | - | - | - | - |
| 1777493187 | 27.78° C | 77% | 1014.4 hPa | - | - | - | - |
| 1777492287 | 27.78° C | 77% | 1014.6 hPa | - | - | - | - |
| 1777491387 | 27.78° C | 76% | 1014.7 hPa | - | - | - | - |
| 1777490487 | 27.78° C | 76% | 1014.7 hPa | - | - | - | - |
| 1777489586 | 27.78° C | 75% | 1014.7 hPa | - | - | - | - |
| 1777488686 | 27.78° C | 74% | 1015.1 hPa | - | - | - | - |
| 1777487786 | 27.78° C | 74% | 1015.2 hPa | - | - | - | - |
| 1777486886 | 27.78° C | 73% | 1015.4 hPa | - | - | - | - |
| 1777485986 | 27.78° C | 72% | 1015.6 hPa | - | - | - | - |
| 1777485086 | 27.22° C | 71% | 1015.5 hPa | - | - | - | - |
| 1777484186 | 27.22° C | 71% | 1015.6 hPa | - | - | - | - |
| 1777483286 | 27.22° C | 69% | 1015.6 hPa | - | - | - | - |
| 1777482386 | 26.67° C | 67% | 1015.9 hPa | - | - | - | - |
| 1777481486 | 26.67° C | 64% | 1016 hPa | - | - | - | - |
| 1777480586 | 26.11° C | 61% | 1016 hPa | - | - | - | - |
| 1777479686 | 25.56° C | 55% | 1015.9 hPa | - | - | - | - |
| 1777478786 | 24.44° C | 46% | 1015.8 hPa | - | - | - | - |
| 1777477886 | 25° C | 45% | 1015.9 hPa | - | - | - | - |
* Rain since midnight (hover to see other rain measurements)
** Current wind speed in m/s (hover to see current wind gust speed)